createdAt,value
2018-06-27T00:01:52.477Z,19.80
2018-06-27T00:04:24.791Z,19.33
2018-06-27T00:06:53.128Z,26.67
2018-06-27T00:09:24.285Z,25.83
2018-06-27T00:11:55.316Z,21.67
2018-06-27T00:14:23.635Z,25.90
2018-06-27T00:16:52.077Z,23.40
2018-06-27T00:19:24.590Z,25.33
2018-06-27T00:21:52.937Z,19.93
2018-06-27T00:24:27.597Z,23.67
2018-06-27T00:26:55.832Z,24.80
2018-06-27T00:29:27.082Z,24.37
2018-06-27T00:31:58.403Z,21.33
2018-06-27T00:34:28.656Z,17.97
2018-06-27T00:36:56.928Z,29.03
2018-06-27T00:39:30.206Z,26.23
2018-06-27T00:42:00.668Z,24.73
2018-06-27T00:44:36.124Z,23.30
2018-06-27T00:47:09.962Z,26.33
2018-06-27T00:49:38.521Z,21.70
2018-06-27T00:52:11.094Z,20.43
2018-06-27T00:54:44.485Z,21.43
2018-06-27T00:57:13.222Z,22.43
2018-06-27T00:59:52.748Z,20.10
2018-06-27T01:02:28.301Z,18.30
2018-06-27T01:05:01.473Z,23.30
2018-06-27T01:07:31.810Z,26.10
2018-06-27T01:10:04.337Z,24.23
2018-06-27T01:12:46.388Z,22.10
2018-06-27T01:15:14.821Z,28.53
2018-06-27T01:17:50.605Z,27.23
2018-06-27T01:20:26.856Z,28.43
2018-06-27T01:22:55.072Z,25.67
2018-06-27T01:25:27.611Z,23.13
2018-06-27T01:27:55.953Z,24.53
2018-06-27T01:30:27.093Z,26.20
2018-06-27T01:33:03.370Z,25.90
2018-06-27T01:35:33.966Z,25.07
2018-06-27T01:38:05.475Z,26.23
2018-06-27T01:40:37.705Z,27.07
2018-06-27T01:43:11.403Z,25.00
2018-06-27T01:45:42.852Z,26.37
2018-06-27T01:48:14.211Z,25.87
2018-06-27T01:50:57.427Z,21.73
2018-06-27T01:53:28.865Z,24.83
2018-06-27T01:55:57.397Z,28.60
2018-06-27T01:58:25.835Z,26.23
2018-06-27T02:00:54.213Z,25.80
2018-06-27T02:03:22.491Z,25.17
2018-06-27T02:05:59.868Z,24.60
2018-06-27T02:08:43.009Z,21.80
2018-06-27T02:11:16.517Z,22.60
2018-06-27T02:13:51.597Z,24.67
2018-06-27T02:16:19.991Z,24.50
2018-06-27T02:18:48.492Z,22.63
2018-06-27T02:21:16.955Z,24.73
2018-06-27T02:23:45.403Z,19.50
2018-06-27T02:26:13.631Z,20.60
2018-06-27T02:28:48.066Z,21.00
2018-06-27T02:31:22.880Z,18.80
2018-06-27T02:33:51.337Z,22.63
2018-06-27T02:36:19.553Z,18.63
2018-06-27T02:38:50.986Z,17.93
2018-06-27T02:41:25.492Z,19.40
2018-06-27T02:43:58.742Z,17.63
2018-06-27T02:46:29.757Z,19.53
2018-06-27T02:48:58.195Z,24.97
2018-06-27T02:51:26.634Z,25.87
2018-06-27T02:53:54.965Z,23.30
2018-06-27T02:56:23.516Z,19.40
2018-06-27T02:58:51.823Z,23.77
2018-06-27T03:01:27.505Z,20.93
2018-06-27T03:03:55.876Z,17.20
2018-06-27T03:06:28.490Z,18.23
2018-06-27T03:08:56.781Z,16.13
2018-06-27T03:11:36.781Z,19.73
2018-06-27T03:14:10.543Z,17.80
2018-06-27T03:16:47.177Z,16.87
2018-06-27T03:19:15.446Z,18.67
2018-06-27T03:21:52.214Z,21.83
2018-06-27T03:24:20.498Z,18.83
2018-06-27T03:26:52.937Z,24.60
2018-06-27T03:29:24.363Z,23.40
2018-06-27T03:31:59.176Z,26.93
2018-06-27T03:34:27.414Z,28.87
2018-06-27T03:36:55.659Z,22.03
2018-06-27T03:39:31.122Z,19.77
2018-06-27T03:42:05.733Z,25.40
2018-06-27T03:44:34.468Z,28.50
2018-06-27T03:47:02.698Z,28.67
2018-06-27T03:49:35.139Z,33.43
2018-06-27T03:52:06.712Z,32.07
2018-06-27T03:54:34.990Z,31.57
2018-06-27T03:57:09.779Z,38.37
2018-06-27T03:59:38.002Z,38.23
2018-06-27T04:02:12.618Z,33.33
2018-06-27T04:04:40.908Z,35.20
2018-06-27T04:07:13.885Z,32.93
2018-06-27T04:09:44.522Z,37.83
2018-06-27T04:12:15.881Z,35.27
2018-06-27T04:14:46.539Z,29.73
2018-06-27T04:17:18.960Z,31.87
2018-06-27T04:19:58.702Z,27.00
2018-06-27T04:22:35.264Z,29.50
2018-06-27T04:25:04.086Z,29.90
2018-06-27T04:27:34.364Z,27.00
2018-06-27T04:30:03.148Z,24.93
2018-06-27T04:32:33.540Z,28.83
2018-06-27T04:35:08.339Z,27.93
2018-06-27T04:37:38.886Z,32.57
2018-06-27T04:40:13.658Z,29.27
2018-06-27T04:42:41.885Z,29.27
2018-06-27T04:45:15.036Z,29.23
2018-06-27T04:47:46.526Z,25.00
2018-06-27T04:50:20.162Z,29.20
2018-06-27T04:52:56.406Z,25.93
2018-06-27T04:55:36.385Z,24.03
2018-06-27T04:58:04.616Z,29.30
2018-06-27T05:00:39.301Z,25.63
2018-06-27T05:03:07.506Z,26.13
2018-06-27T05:05:42.175Z,25.13
2018-06-27T05:08:10.436Z,21.90
2018-06-27T05:10:47.118Z,25.50
2018-06-27T05:13:15.477Z,25.37
2018-06-27T05:18:21.687Z,24.90
2018-06-27T05:20:50.114Z,23.53
2018-06-27T05:23:18.482Z,29.80
2018-06-27T05:25:46.815Z,24.53
2018-06-27T05:28:21.544Z,19.47
2018-06-27T05:30:49.771Z,28.90
2018-06-27T05:33:22.769Z,27.87
2018-06-27T05:36:02.402Z,22.57
2018-06-27T05:38:33.714Z,23.70
2018-06-27T05:41:06.201Z,21.77
2018-06-27T05:43:37.442Z,29.70
2018-06-27T05:46:05.846Z,16.77
2018-06-27T05:48:34.302Z,27.80
2018-06-27T05:51:02.546Z,24.10
2018-06-27T05:53:30.978Z,25.10
2018-06-27T05:56:06.333Z,25.47
2018-06-27T05:58:41.593Z,22.87
2018-06-27T06:01:14.261Z,28.83
2018-06-27T06:03:48.850Z,22.97
2018-06-27T06:06:20.544Z,22.40
2018-06-27T06:08:48.806Z,17.93
2018-06-27T06:11:21.342Z,23.60
2018-06-27T06:13:53.450Z,22.10
2018-06-27T06:16:27.061Z,24.67
2018-06-27T06:19:00.156Z,25.13
2018-06-27T06:21:38.550Z,24.13
2018-06-27T06:24:11.113Z,25.83
2018-06-27T06:26:51.093Z,24.37
2018-06-27T06:29:19.330Z,25.27
2018-06-27T06:32:02.088Z,20.73
2018-06-27T06:34:32.481Z,31.43
2018-06-27T06:37:00.703Z,26.67
2018-06-27T06:39:34.152Z,25.47
2018-06-27T06:42:05.622Z,25.53
2018-06-27T06:44:45.417Z,26.77
2018-06-27T06:47:13.868Z,23.73
2018-06-27T06:49:42.402Z,27.57
2018-06-27T06:52:15.045Z,25.97
2018-06-27T06:54:43.583Z,27.20
2018-06-27T06:57:24.274Z,29.07
2018-06-27T07:00:00.270Z,25.77
2018-06-27T07:02:30.710Z,23.93
2018-06-27T07:05:01.984Z,24.23
2018-06-27T07:07:30.493Z,24.57
2018-06-27T07:09:58.715Z,26.33
2018-06-27T07:12:30.091Z,28.77
2018-06-27T07:15:01.472Z,24.63
2018-06-27T07:17:44.096Z,27.30
2018-06-27T07:20:12.351Z,28.67
2018-06-27T07:22:47.070Z,27.17
2018-06-27T07:25:15.325Z,22.60
2018-06-27T07:27:49.923Z,27.23
2018-06-27T07:30:21.014Z,27.33
2018-06-27T07:32:54.219Z,30.63
2018-06-27T07:35:22.663Z,26.00
2018-06-27T07:37:51.066Z,24.17
2018-06-27T07:40:19.323Z,27.10
2018-06-27T07:42:50.693Z,21.47
2018-06-27T07:45:27.364Z,22.23
2018-06-27T07:47:56.050Z,23.87
2018-06-27T07:50:24.393Z,22.50
2018-06-27T07:52:52.779Z,18.90
2018-06-27T07:55:24.699Z,21.90
2018-06-27T07:57:54.883Z,21.47
2018-06-27T08:00:23.171Z,17.97
2018-06-27T08:02:56.626Z,17.27
2018-06-27T08:05:26.676Z,17.57
2018-06-27T08:07:57.179Z,16.70
2018-06-27T08:10:37.081Z,17.73
2018-06-27T08:13:05.302Z,16.27
2018-06-27T08:15:36.317Z,12.83
2018-06-27T08:18:09.879Z,16.23
2018-06-27T08:20:40.475Z,16.53
2018-06-27T08:23:20.209Z,19.03
2018-06-27T08:25:51.277Z,18.43
2018-06-27T08:28:24.679Z,17.47
2018-06-27T08:30:53.212Z,15.87
2018-06-27T08:33:24.501Z,16.47
2018-06-27T08:35:53.065Z,13.93
2018-06-27T08:38:21.343Z,14.93
2018-06-27T08:40:49.549Z,11.83
2018-06-27T08:43:20.645Z,14.33
2018-06-27T08:45:53.969Z,13.00
2018-06-27T08:48:22.372Z,11.90
2018-06-27T08:50:50.942Z,11.33
2018-06-27T08:53:19.602Z,12.63
2018-06-27T08:55:48.100Z,11.73
2018-06-27T08:58:23.571Z,10.43
2018-06-27T09:01:02.129Z,14.83
2018-06-27T09:03:33.163Z,11.63
2018-06-27T09:06:01.411Z,11.23
2018-06-27T09:08:32.267Z,13.23
2018-06-27T09:11:00.693Z,8.10
2018-06-27T09:13:29.097Z,9.70
2018-06-27T09:15:57.421Z,11.33
2018-06-27T09:18:25.726Z,11.73
2018-06-27T09:20:56.943Z,12.00
2018-06-27T09:23:28.436Z,10.37
2018-06-27T09:26:05.246Z,9.43
2018-06-27T09:28:37.130Z,8.53
2018-06-27T09:31:07.800Z,7.10
2018-06-27T09:33:41.613Z,6.23
2018-06-27T09:36:14.090Z,6.87
2018-06-27T09:38:42.449Z,4.97
2018-06-27T09:41:15.008Z,6.17
2018-06-27T09:43:48.342Z,3.97
2018-06-27T09:46:22.928Z,2.37
2018-06-27T09:48:55.577Z,3.93
2018-06-27T09:51:23.959Z,3.53
2018-06-27T09:53:52.140Z,2.73
2018-06-27T09:56:25.064Z,2.17
2018-06-27T09:58:53.057Z,2.80
2018-06-27T10:01:26.219Z,4.00
2018-06-27T10:03:54.367Z,3.30
2018-06-27T10:06:32.015Z,3.03
2018-06-27T10:09:00.061Z,3.33
2018-06-27T10:11:33.290Z,3.27
2018-06-27T10:14:07.144Z,5.40
2018-06-27T10:16:35.332Z,6.50
2018-06-27T10:19:08.466Z,5.63
2018-06-27T10:21:36.490Z,3.43
2018-06-27T10:24:10.996Z,4.00
2018-06-27T10:26:42.715Z,3.17
2018-06-27T10:29:10.776Z,2.43
2018-06-27T10:31:40.981Z,6.10
2018-06-27T10:34:11.962Z,3.23
2018-06-27T10:36:44.211Z,3.47
2018-06-27T10:39:15.049Z,3.87
2018-06-27T10:41:52.550Z,3.00
2018-06-27T10:44:20.533Z,3.47
2018-06-27T10:46:53.727Z,3.63
2018-06-27T10:49:21.813Z,3.47
2018-06-27T10:51:59.566Z,3.93
2018-06-27T10:54:27.526Z,4.23
2018-06-27T10:56:55.631Z,4.33
2018-06-27T10:59:23.825Z,3.40
2018-06-27T11:01:51.755Z,2.73
2018-06-27T11:04:21.910Z,2.40
2018-06-27T11:06:49.896Z,2.13
2018-06-27T11:09:31.975Z,4.13
2018-06-27T11:12:00.090Z,2.47
2018-06-27T11:14:32.419Z,2.77
2018-06-27T11:17:03.159Z,2.97
2018-06-27T11:19:31.138Z,3.67
2018-06-27T11:21:59.270Z,3.70
2018-06-27T11:24:27.310Z,3.43
2018-06-27T11:26:55.459Z,3.07
2018-06-27T11:29:23.474Z,2.43
2018-06-27T11:32:03.214Z,2.90
2018-06-27T11:34:31.160Z,4.83
2018-06-27T11:37:01.373Z,2.87
2018-06-27T11:39:29.454Z,2.67
2018-06-27T11:41:58.162Z,2.13
2018-06-27T11:44:26.206Z,4.70
2018-06-27T11:46:59.240Z,1.93
2018-06-27T11:49:27.333Z,2.60
2018-06-27T11:52:01.590Z,3.43
2018-06-27T11:54:40.227Z,3.70
2018-06-27T11:57:10.493Z,2.97
2018-06-27T11:59:40.828Z,2.03
2018-06-27T12:02:12.266Z,2.57
2018-06-27T12:04:51.842Z,1.93
2018-06-27T12:07:27.430Z,1.73
2018-06-27T12:10:01.999Z,1.70
2018-06-27T12:12:30.578Z,2.33
2018-06-27T12:14:59.057Z,1.90
2018-06-27T12:17:27.330Z,4.07
2018-06-27T12:20:02.010Z,1.33
2018-06-27T12:22:30.216Z,1.60
2018-06-27T12:25:05.153Z,1.77
2018-06-27T12:27:33.642Z,1.50
2018-06-27T12:30:01.997Z,1.47
2018-06-27T12:32:30.237Z,3.40
2018-06-27T12:35:05.646Z,2.60
2018-06-27T12:37:38.018Z,3.90
2018-06-27T12:40:12.624Z,1.63
2018-06-27T12:42:46.123Z,1.70
2018-06-27T12:45:14.461Z,1.50
2018-06-27T12:47:45.512Z,1.33
2018-06-27T12:50:25.606Z,4.07
2018-06-27T12:52:53.839Z,1.20
2018-06-27T12:55:22.296Z,1.80
2018-06-27T12:57:53.363Z,2.37
2018-06-27T13:00:21.601Z,1.47
2018-06-27T13:02:49.737Z,1.20
2018-06-27T13:05:25.217Z,0.77
2018-06-27T13:07:53.427Z,0.97
2018-06-27T13:10:30.565Z,1.90
2018-06-27T13:12:58.782Z,0.80
2018-06-27T13:15:32.446Z,2.63
2018-06-27T13:18:00.807Z,2.07
2018-06-27T13:20:29.061Z,1.80
2018-06-27T13:23:11.139Z,0.97
2018-06-27T13:25:44.862Z,2.70
2018-06-27T13:28:19.598Z,1.93
2018-06-27T13:30:47.799Z,1.13
2018-06-27T13:33:27.547Z,1.03
2018-06-27T13:35:55.754Z,1.43
2018-06-27T13:38:31.053Z,1.63
2018-06-27T13:41:02.329Z,0.83
2018-06-27T13:43:35.534Z,1.53
2018-06-27T13:46:03.819Z,1.90
2018-06-27T13:48:31.786Z,0.70
2018-06-27T13:51:10.000Z,2.47
2018-06-27T13:53:41.239Z,1.00
2018-06-27T13:56:09.512Z,1.10
2018-06-27T13:58:40.615Z,3.53
2018-06-27T14:01:11.844Z,0.90
2018-06-27T14:03:40.113Z,1.00
2018-06-27T14:06:08.309Z,0.80
2018-06-27T14:08:42.694Z,1.17
2018-06-27T14:11:18.810Z,2.77
2018-06-27T14:13:47.157Z,1.60
2018-06-27T14:16:15.423Z,1.67
2018-06-27T14:18:47.993Z,1.97
2018-06-27T14:21:16.163Z,2.23
2018-06-27T14:23:50.661Z,1.13
2018-06-27T14:26:22.525Z,1.10
2018-06-27T14:28:50.807Z,1.43
2018-06-27T14:31:21.031Z,1.00
2018-06-27T14:33:53.531Z,1.90
2018-06-27T14:36:27.961Z,1.17
2018-06-27T14:39:00.260Z,1.00
2018-06-27T14:41:34.429Z,1.60
2018-06-27T14:44:02.957Z,1.20
2018-06-27T14:46:31.109Z,3.00
2018-06-27T14:49:04.998Z,1.10
2018-06-27T14:51:36.212Z,1.07
2018-06-27T14:54:04.579Z,1.10
2018-06-27T14:56:32.830Z,2.43
2018-06-27T14:59:12.583Z,3.13
2018-06-27T15:01:40.830Z,3.37
2018-06-27T15:04:17.691Z,1.00
2018-06-27T15:06:48.559Z,1.00
2018-06-27T15:09:24.057Z,2.63
2018-06-27T15:12:03.987Z,1.50
2018-06-27T15:14:34.313Z,1.33
2018-06-27T15:17:02.591Z,1.23
2018-06-27T15:19:36.600Z,1.17
2018-06-27T15:22:16.144Z,0.80
2018-06-27T15:24:47.148Z,1.27
2018-06-27T15:27:15.345Z,1.13
2018-06-27T15:29:49.410Z,1.10
2018-06-27T15:32:23.617Z,1.47
2018-06-27T15:34:52.187Z,0.83
2018-06-27T15:37:20.331Z,1.07
2018-06-27T15:39:52.756Z,1.87
2018-06-27T15:42:22.970Z,2.27
2018-06-27T15:45:02.970Z,1.00
2018-06-27T15:47:31.197Z,2.80
2018-06-27T15:49:59.356Z,1.27
2018-06-27T15:52:30.561Z,1.67
2018-06-27T15:55:00.816Z,5.60
2018-06-27T15:57:34.047Z,1.57
2018-06-27T16:00:05.050Z,2.10
2018-06-27T16:02:36.409Z,1.73
2018-06-27T16:05:07.067Z,1.37
2018-06-27T16:07:40.426Z,2.50
2018-06-27T16:10:11.893Z,2.67
2018-06-27T16:12:51.725Z,1.30
2018-06-27T16:15:29.237Z,1.20
2018-06-27T16:17:57.485Z,1.30
2018-06-27T16:20:32.361Z,2.03
2018-06-27T16:23:00.503Z,1.30
2018-06-27T16:25:35.050Z,1.70
2018-06-27T16:28:10.084Z,1.73
2018-06-27T16:30:42.357Z,1.30
2018-06-27T16:33:12.587Z,1.43
2018-06-27T16:35:40.790Z,1.40
2018-06-27T16:38:15.351Z,1.80
2018-06-27T16:40:46.376Z,1.63
2018-06-27T16:43:18.212Z,1.30
2018-06-27T16:45:52.929Z,1.30
2018-06-27T16:48:21.134Z,1.30
2018-06-27T16:50:55.747Z,7.33
2018-06-27T16:53:24.083Z,1.97
2018-06-27T16:56:03.931Z,1.10
2018-06-27T16:58:32.191Z,1.10
2018-06-27T17:01:00.609Z,1.20
2018-06-27T17:03:31.586Z,2.30
2018-06-27T17:06:01.941Z,1.20
2018-06-27T17:08:30.113Z,3.50
2018-06-27T17:10:58.363Z,1.40
2018-06-27T17:13:34.448Z,1.27
2018-06-27T17:16:06.270Z,1.23
2018-06-27T17:18:41.129Z,2.10
2018-06-27T17:21:09.304Z,1.20
2018-06-27T17:23:43.805Z,1.20
2018-06-27T17:26:15.055Z,1.03
2018-06-27T17:28:43.095Z,1.23
2018-06-27T17:31:11.589Z,1.27
2018-06-27T17:33:39.707Z,1.47
2018-06-27T17:38:51.107Z,1.27
2018-06-27T17:41:21.302Z,0.87
2018-06-27T17:43:49.454Z,1.27
2018-06-27T17:46:20.429Z,1.43
2018-06-27T17:48:48.878Z,1.40
2018-06-27T17:51:17.259Z,1.20
2018-06-27T17:53:45.440Z,1.10
2018-06-27T17:56:25.510Z,1.60
2018-06-27T17:58:55.686Z,1.47
2018-06-27T18:01:23.990Z,1.50
2018-06-27T18:03:57.237Z,1.27
2018-06-27T18:06:31.689Z,1.30
2018-06-27T18:09:04.862Z,1.87
2018-06-27T18:11:46.154Z,1.30
2018-06-27T18:14:16.428Z,1.70
2018-06-27T18:16:44.677Z,1.63
2018-06-27T18:19:15.643Z,1.10
2018-06-27T18:21:54.128Z,1.57
2018-06-27T18:24:34.885Z,1.63
2018-06-27T18:27:09.539Z,1.10
2018-06-27T18:29:37.707Z,1.63
2018-06-27T18:32:12.320Z,1.53
2018-06-27T18:34:53.025Z,1.47
2018-06-27T18:37:21.390Z,1.37
2018-06-27T18:39:49.607Z,1.60
2018-06-27T18:42:20.702Z,1.30
2018-06-27T18:45:08.082Z,1.50
2018-06-27T18:47:48.792Z,1.67
2018-06-27T18:50:19.616Z,2.40
2018-06-27T18:52:47.801Z,1.40
2018-06-27T18:55:20.359Z,2.47
2018-06-27T18:57:51.705Z,1.63
2018-06-27T19:00:24.228Z,1.40
2018-06-27T19:02:56.550Z,1.30
2018-06-27T19:05:31.424Z,1.83
2018-06-27T19:08:02.115Z,1.83
2018-06-27T19:10:30.266Z,1.40
2018-06-27T19:12:58.345Z,1.20
2018-06-27T19:15:34.778Z,2.10
2018-06-27T19:18:06.211Z,1.50
2018-06-27T19:20:46.051Z,1.63
2018-06-27T19:23:14.314Z,1.73
2018-06-27T19:25:49.093Z,2.60
2018-06-27T19:28:20.281Z,1.30
2018-06-27T19:30:50.562Z,1.70
2018-06-27T19:33:21.667Z,1.80
2018-06-27T19:35:49.986Z,1.40
2018-06-27T19:38:18.204Z,1.37
2018-06-27T19:40:50.363Z,1.40
2018-06-27T19:43:18.571Z,1.30
2018-06-27T19:45:47.069Z,2.37
2018-06-27T19:48:15.301Z,1.30
2018-06-27T19:50:43.551Z,1.70
2018-06-27T19:53:23.574Z,2.53
2018-06-27T19:55:53.840Z,2.60
2018-06-27T19:58:22.155Z,1.50
2018-06-27T20:00:50.378Z,1.77
2018-06-27T20:03:28.817Z,2.70
2018-06-27T20:05:59.739Z,1.30
2018-06-27T20:08:28.032Z,1.53
2018-06-27T20:11:00.618Z,2.03
2018-06-27T20:13:28.972Z,4.10
2018-06-27T20:16:01.253Z,1.10
2018-06-27T20:18:32.486Z,1.90
2018-06-27T20:21:03.321Z,1.93
2018-06-27T20:23:35.758Z,3.07
2018-06-27T20:26:09.024Z,6.50
2018-06-27T20:28:41.498Z,3.40
2018-06-27T20:31:16.043Z,8.43
2018-06-27T20:33:51.311Z,3.27
2018-06-27T20:36:22.382Z,7.07
2018-06-27T20:38:50.718Z,1.87
2018-06-27T20:41:18.942Z,2.30
2018-06-27T20:43:49.842Z,8.10
2018-06-27T20:46:17.931Z,3.07
2018-06-27T20:48:51.008Z,2.17
2018-06-27T20:51:21.585Z,2.63
2018-06-27T20:53:54.803Z,1.90
2018-06-27T20:56:23.216Z,1.83
2018-06-27T20:58:51.506Z,1.83
2018-06-27T21:01:19.779Z,1.93
2018-06-27T21:03:50.947Z,2.47
2018-06-27T21:06:29.303Z,1.97
2018-06-27T21:08:59.524Z,1.77
2018-06-27T21:11:27.688Z,3.77
2018-06-27T21:14:00.267Z,1.50
2018-06-27T21:16:32.616Z,2.70
2018-06-27T21:19:00.797Z,1.87
2018-06-27T21:21:31.573Z,2.50
2018-06-27T21:24:06.106Z,1.77
2018-06-27T21:26:37.141Z,2.43
2018-06-27T21:29:07.650Z,1.50
2018-06-27T21:31:46.100Z,1.60
2018-06-27T21:34:19.345Z,1.60
2018-06-27T21:36:47.824Z,1.83
2018-06-27T21:39:16.135Z,1.97
2018-06-27T21:41:44.425Z,4.60
2018-06-27T21:44:15.438Z,1.60
2018-06-27T21:46:45.814Z,1.80
2018-06-27T21:49:13.947Z,4.10
2018-06-27T21:51:45.028Z,1.70
2018-06-27T21:54:15.483Z,1.70
2018-06-27T21:56:49.571Z,1.60
2018-06-27T21:59:17.871Z,1.90
2018-06-27T22:01:46.035Z,2.07
2018-06-27T22:04:14.455Z,1.67
2018-06-27T22:06:45.808Z,1.97
2018-06-27T22:09:17.274Z,1.80
2018-06-27T22:11:57.078Z,2.67
2018-06-27T22:14:31.418Z,1.60
2018-06-27T22:16:59.392Z,1.87
2018-06-27T22:19:40.827Z,1.93
2018-06-27T22:22:09.142Z,2.33
2018-06-27T22:24:37.465Z,1.90
2018-06-27T22:27:08.444Z,3.53
2018-06-27T22:29:39.018Z,2.17
2018-06-27T22:32:12.479Z,2.77
2018-06-27T22:34:42.816Z,1.80
2018-06-27T22:37:21.230Z,3.57
2018-06-27T22:39:49.510Z,3.27
2018-06-27T22:42:18.018Z,3.30
2018-06-27T22:44:46.239Z,1.97
2018-06-27T22:47:17.230Z,1.87
2018-06-27T22:49:54.795Z,2.67
2018-06-27T22:52:28.106Z,2.23
2018-06-27T22:55:13.196Z,2.17
2018-06-27T22:57:41.463Z,2.77
2018-06-27T23:00:13.933Z,1.80
2018-06-27T23:02:44.853Z,1.90
2018-06-27T23:05:13.141Z,2.17
2018-06-27T23:07:41.466Z,3.07
2018-06-27T23:10:09.571Z,2.40
2018-06-27T23:12:40.718Z,1.80
2018-06-27T23:15:14.009Z,2.30
2018-06-27T23:17:42.043Z,5.07
2018-06-27T23:20:14.360Z,4.90
2018-06-27T23:22:47.813Z,3.40
2018-06-27T23:25:18.973Z,7.17
2018-06-27T23:27:47.177Z,3.00
2018-06-27T23:30:19.662Z,2.70
2018-06-27T23:32:48.012Z,2.20
2018-06-27T23:35:27.930Z,3.53
2018-06-27T23:37:56.111Z,5.40
2018-06-27T23:40:24.333Z,1.87
2018-06-27T23:42:57.630Z,4.30
2018-06-27T23:45:29.064Z,3.40
2018-06-27T23:48:09.045Z,2.07
2018-06-27T23:50:37.259Z,2.37
2018-06-27T23:53:11.938Z,4.23
2018-06-27T23:55:40.257Z,2.30
2018-06-27T23:58:12.721Z,1.90
